sensor_id;sensor_type;location;lat;lon;timestamp;P1;durP1;ratioP1;P2;durP2;ratioP2
7843;SDS011;3967;48.702;9.326;2023-06-24T00:02:26;5.27;;;4.23;;
7843;SDS011;3967;48.702;9.326;2023-06-24T00:04:55;4.23;;;3.80;;
7843;SDS011;3967;48.702;9.326;2023-06-24T00:07:26;4.40;;;3.97;;
7843;SDS011;3967;48.702;9.326;2023-06-24T00:09:53;3.93;;;3.63;;
7843;SDS011;3967;48.702;9.326;2023-06-24T00:12:20;6.03;;;4.40;;
7843;SDS011;3967;48.702;9.326;2023-06-24T00:14:47;5.30;;;4.80;;
7843;SDS011;3967;48.702;9.326;2023-06-24T00:17:14;4.50;;;4.10;;
7843;SDS011;3967;48.702;9.326;2023-06-24T00:19:43;4.90;;;3.90;;
7843;SDS011;3967;48.702;9.326;2023-06-24T00:22:12;3.90;;;3.60;;
7843;SDS011;3967;48.702;9.326;2023-06-24T00:24:41;5.00;;;3.80;;
7843;SDS011;3967;48.702;9.326;2023-06-24T00:27:09;4.30;;;4.00;;
7843;SDS011;3967;48.702;9.326;2023-06-24T00:29:36;4.10;;;3.80;;
7843;SDS011;3967;48.702;9.326;2023-06-24T00:32:03;3.97;;;3.60;;
7843;SDS011;3967;48.702;9.326;2023-06-24T00:34:30;4.77;;;4.03;;
7843;SDS011;3967;48.702;9.326;2023-06-24T00:36:57;4.70;;;4.30;;
7843;SDS011;3967;48.702;9.326;2023-06-24T00:39:23;5.20;;;4.50;;
7843;SDS011;3967;48.702;9.326;2023-06-24T00:41:50;4.37;;;4.00;;
7843;SDS011;3967;48.702;9.326;2023-06-24T00:44:17;4.30;;;4.00;;
7843;SDS011;3967;48.702;9.326;2023-06-24T00:46:44;5.47;;;4.20;;
7843;SDS011;3967;48.702;9.326;2023-06-24T00:49:11;3.70;;;3.40;;
7843;SDS011;3967;48.702;9.326;2023-06-24T00:51:40;4.57;;;4.17;;
7843;SDS011;3967;48.702;9.326;2023-06-24T00:54:13;3.50;;;3.20;;
7843;SDS011;3967;48.702;9.326;2023-06-24T00:56:40;4.93;;;4.20;;
7843;SDS011;3967;48.702;9.326;2023-06-24T00:59:10;3.60;;;3.30;;
7843;SDS011;3967;48.702;9.326;2023-06-24T01:01:39;4.27;;;3.87;;
7843;SDS011;3967;48.702;9.326;2023-06-24T01:04:07;4.50;;;4.10;;
7843;SDS011;3967;48.702;9.326;2023-06-24T01:06:34;4.10;;;3.80;;
7843;SDS011;3967;48.702;9.326;2023-06-24T01:09:02;4.00;;;3.60;;
7843;SDS011;3967;48.702;9.326;2023-06-24T01:11:31;4.87;;;4.37;;
7843;SDS011;3967;48.702;9.326;2023-06-24T01:13:58;4.80;;;4.30;;
7843;SDS011;3967;48.702;9.326;2023-06-24T01:32:54;4.73;;;4.27;;
7843;SDS011;3967;48.702;9.326;2023-06-24T01:35:28;4.97;;;4.47;;
7843;SDS011;3967;48.702;9.326;2023-06-24T01:37:59;6.40;;;4.60;;
7843;SDS011;3967;48.702;9.326;2023-06-24T01:40:33;5.83;;;4.23;;
7843;SDS011;3967;48.702;9.326;2023-06-24T01:43:06;4.87;;;4.37;;
7843;SDS011;3967;48.702;9.326;2023-06-24T01:45:36;4.70;;;4.00;;
7843;SDS011;3967;48.702;9.326;2023-06-24T01:48:14;4.07;;;3.70;;
7843;SDS011;3967;48.702;9.326;2023-06-24T01:50:50;4.63;;;4.23;;
7843;SDS011;3967;48.702;9.326;2023-06-24T01:53:28;4.50;;;4.10;;
7843;SDS011;3967;48.702;9.326;2023-06-24T01:56:00;4.77;;;4.30;;
7843;SDS011;3967;48.702;9.326;2023-06-24T01:58:29;6.03;;;4.80;;
7843;SDS011;3967;48.702;9.326;2023-06-24T02:01:00;4.47;;;4.07;;
7843;SDS011;3967;48.702;9.326;2023-06-24T02:03:28;4.27;;;3.87;;
7843;SDS011;3967;48.702;9.326;2023-06-24T02:05:57;5.07;;;4.60;;
7843;SDS011;3967;48.702;9.326;2023-06-24T02:08:26;5.07;;;4.63;;
7843;SDS011;3967;48.702;9.326;2023-06-24T02:10:56;6.33;;;4.83;;
7843;SDS011;3967;48.702;9.326;2023-06-24T02:13:25;5.10;;;4.60;;
7843;SDS011;3967;48.702;9.326;2023-06-24T02:15:53;5.67;;;4.73;;
7843;SDS011;3967;48.702;9.326;2023-06-24T02:18:21;4.83;;;4.43;;
7843;SDS011;3967;48.702;9.326;2023-06-24T02:20:49;6.33;;;4.50;;
7843;SDS011;3967;48.702;9.326;2023-06-24T02:23:17;4.73;;;4.33;;
7843;SDS011;3967;48.702;9.326;2023-06-24T02:25:45;5.20;;;4.77;;
7843;SDS011;3967;48.702;9.326;2023-06-24T02:28:12;8.17;;;5.53;;
7843;SDS011;3967;48.702;9.326;2023-06-24T02:30:41;5.07;;;4.40;;
7843;SDS011;3967;48.702;9.326;2023-06-24T02:33:09;4.60;;;4.20;;
7843;SDS011;3967;48.702;9.326;2023-06-24T02:35:38;4.53;;;4.23;;
7843;SDS011;3967;48.702;9.326;2023-06-24T02:38:04;5.07;;;4.57;;
7843;SDS011;3967;48.702;9.326;2023-06-24T02:40:31;5.10;;;4.60;;
7843;SDS011;3967;48.702;9.326;2023-06-24T02:42:59;5.40;;;4.90;;
7843;SDS011;3967;48.702;9.326;2023-06-24T02:45:26;5.77;;;5.17;;
7843;SDS011;3967;48.702;9.326;2023-06-24T02:47:54;5.77;;;4.60;;
7843;SDS011;3967;48.702;9.326;2023-06-24T02:50:23;5.03;;;4.53;;
7843;SDS011;3967;48.702;9.326;2023-06-24T02:52:51;5.43;;;4.73;;
7843;SDS011;3967;48.702;9.326;2023-06-24T02:55:18;5.77;;;5.20;;
7843;SDS011;3967;48.702;9.326;2023-06-24T02:57:46;5.37;;;4.87;;
7843;SDS011;3967;48.702;9.326;2023-06-24T03:00:14;5.23;;;4.73;;
7843;SDS011;3967;48.702;9.326;2023-06-24T03:02:41;5.27;;;4.77;;
7843;SDS011;3967;48.702;9.326;2023-06-24T03:05:10;5.23;;;4.70;;
7843;SDS011;3967;48.702;9.326;2023-06-24T03:07:39;5.33;;;4.93;;
7843;SDS011;3967;48.702;9.326;2023-06-24T03:10:08;6.70;;;5.00;;
7843;SDS011;3967;48.702;9.326;2023-06-24T03:12:37;5.67;;;5.17;;
7843;SDS011;3967;48.702;9.326;2023-06-24T03:15:03;6.37;;;5.10;;
7843;SDS011;3967;48.702;9.326;2023-06-24T03:17:31;6.03;;;5.50;;
7843;SDS011;3967;48.702;9.326;2023-06-24T03:19:57;6.13;;;5.57;;
7843;SDS011;3967;48.702;9.326;2023-06-24T03:22:24;6.03;;;5.50;;
7843;SDS011;3967;48.702;9.326;2023-06-24T03:24:51;5.10;;;4.70;;
7843;SDS011;3967;48.702;9.326;2023-06-24T03:27:19;5.80;;;5.30;;
7843;SDS011;3967;48.702;9.326;2023-06-24T03:29:45;7.77;;;5.90;;
7843;SDS011;3967;48.702;9.326;2023-06-24T03:32:12;6.60;;;5.77;;
7843;SDS011;3967;48.702;9.326;2023-06-24T03:34:39;5.70;;;4.63;;
7843;SDS011;3967;48.702;9.326;2023-06-24T03:37:05;5.03;;;4.63;;
7843;SDS011;3967;48.702;9.326;2023-06-24T03:39:32;6.60;;;5.20;;
7843;SDS011;3967;48.702;9.326;2023-06-24T03:41:59;4.73;;;4.30;;
7843;SDS011;3967;48.702;9.326;2023-06-24T03:44:26;5.43;;;4.57;;
7843;SDS011;3967;48.702;9.326;2023-06-24T03:46:53;6.57;;;5.00;;
7843;SDS011;3967;48.702;9.326;2023-06-24T03:49:19;5.40;;;4.90;;
7843;SDS011;3967;48.702;9.326;2023-06-24T03:51:46;4.53;;;4.13;;
7843;SDS011;3967;48.702;9.326;2023-06-24T03:54:13;5.07;;;4.57;;
7843;SDS011;3967;48.702;9.326;2023-06-24T03:56:40;5.43;;;4.93;;
7843;SDS011;3967;48.702;9.326;2023-06-24T03:59:07;5.57;;;5.07;;
7843;SDS011;3967;48.702;9.326;2023-06-24T04:01:34;7.43;;;5.93;;
7843;SDS011;3967;48.702;9.326;2023-06-24T04:04:02;6.30;;;5.70;;
7843;SDS011;3967;48.702;9.326;2023-06-24T04:06:30;6.40;;;5.70;;
7843;SDS011;3967;48.702;9.326;2023-06-24T04:08:57;6.43;;;4.93;;
7843;SDS011;3967;48.702;9.326;2023-06-24T04:11:25;6.03;;;5.43;;
7843;SDS011;3967;48.702;9.326;2023-06-24T04:13:51;5.13;;;4.73;;
7843;SDS011;3967;48.702;9.326;2023-06-24T04:16:18;6.37;;;5.00;;
7843;SDS011;3967;48.702;9.326;2023-06-24T04:18:45;6.50;;;5.00;;
7843;SDS011;3967;48.702;9.326;2023-06-24T04:21:11;6.50;;;5.90;;
7843;SDS011;3967;48.702;9.326;2023-06-24T04:23:38;7.13;;;5.50;;
7843;SDS011;3967;48.702;9.326;2023-06-24T04:26:05;7.67;;;5.63;;
7843;SDS011;3967;48.702;9.326;2023-06-24T04:28:32;6.87;;;5.30;;
7843;SDS011;3967;48.702;9.326;2023-06-24T04:30:58;5.40;;;4.90;;
7843;SDS011;3967;48.702;9.326;2023-06-24T04:33:25;5.30;;;4.80;;
7843;SDS011;3967;48.702;9.326;2023-06-24T04:35:52;5.97;;;5.30;;
7843;SDS011;3967;48.702;9.326;2023-06-24T04:38:22;8.93;;;5.37;;
7843;SDS011;3967;48.702;9.326;2023-06-24T04:40:49;5.80;;;4.53;;
7843;SDS011;3967;48.702;9.326;2023-06-24T04:43:16;6.20;;;5.10;;
7843;SDS011;3967;48.702;9.326;2023-06-24T04:45:42;5.97;;;5.20;;
7843;SDS011;3967;48.702;9.326;2023-06-24T04:48:09;6.30;;;5.40;;
7843;SDS011;3967;48.702;9.326;2023-06-24T04:50:36;6.07;;;5.47;;
7843;SDS011;3967;48.702;9.326;2023-06-24T04:53:03;6.03;;;5.30;;
7843;SDS011;3967;48.702;9.326;2023-06-24T04:55:29;5.70;;;5.00;;
7843;SDS011;3967;48.702;9.326;2023-06-24T04:57:56;5.63;;;5.10;;
7843;SDS011;3967;48.702;9.326;2023-06-24T05:00:23;5.80;;;5.20;;
7843;SDS011;3967;48.702;9.326;2023-06-24T05:02:50;5.70;;;5.20;;
7843;SDS011;3967;48.702;9.326;2023-06-24T05:05:18;6.07;;;5.30;;
7843;SDS011;3967;48.702;9.326;2023-06-24T05:07:46;7.53;;;5.83;;
7843;SDS011;3967;48.702;9.326;2023-06-24T05:10:14;5.63;;;5.20;;
7843;SDS011;3967;48.702;9.326;2023-06-24T05:12:41;6.60;;;5.40;;
7843;SDS011;3967;48.702;9.326;2023-06-24T05:15:08;6.70;;;6.10;;
7843;SDS011;3967;48.702;9.326;2023-06-24T05:17:35;6.97;;;5.97;;
7843;SDS011;3967;48.702;9.326;2023-06-24T05:20:03;6.37;;;5.77;;
7843;SDS011;3967;48.702;9.326;2023-06-24T05:22:30;6.53;;;5.87;;
7843;SDS011;3967;48.702;9.326;2023-06-24T05:24:56;7.03;;;5.67;;
7843;SDS011;3967;48.702;9.326;2023-06-24T05:27:23;6.63;;;6.03;;
7843;SDS011;3967;48.702;9.326;2023-06-24T05:29:50;6.70;;;6.17;;
7843;SDS011;3967;48.702;9.326;2023-06-24T05:32:17;6.97;;;5.60;;
7843;SDS011;3967;48.702;9.326;2023-06-24T05:34:46;5.87;;;5.27;;
7843;SDS011;3967;48.702;9.326;2023-06-24T05:37:13;6.43;;;5.83;;
7843;SDS011;3967;48.702;9.326;2023-06-24T05:39:40;6.27;;;5.30;;
7843;SDS011;3967;48.702;9.326;2023-06-24T05:42:07;6.27;;;5.67;;
7843;SDS011;3967;48.702;9.326;2023-06-24T05:44:34;5.87;;;5.30;;
7843;SDS011;3967;48.702;9.326;2023-06-24T05:47:01;7.03;;;5.90;;
7843;SDS011;3967;48.702;9.326;2023-06-24T05:49:27;6.80;;;6.20;;
7843;SDS011;3967;48.702;9.326;2023-06-24T05:51:54;6.77;;;5.97;;
7843;SDS011;3967;48.702;9.326;2023-06-24T05:54:22;7.03;;;6.33;;
7843;SDS011;3967;48.702;9.326;2023-06-24T05:56:48;7.63;;;6.33;;
7843;SDS011;3967;48.702;9.326;2023-06-24T05:59:15;6.53;;;5.80;;
7843;SDS011;3967;48.702;9.326;2023-06-24T06:01:42;7.73;;;5.37;;
7843;SDS011;3967;48.702;9.326;2023-06-24T06:04:09;7.63;;;6.13;;
7843;SDS011;3967;48.702;9.326;2023-06-24T06:06:35;7.50;;;6.20;;
7843;SDS011;3967;48.702;9.326;2023-06-24T06:09:02;7.00;;;6.30;;
7843;SDS011;3967;48.702;9.326;2023-06-24T06:11:29;7.33;;;6.30;;
7843;SDS011;3967;48.702;9.326;2023-06-24T06:13:56;9.30;;;6.70;;
7843;SDS011;3967;48.702;9.326;2023-06-24T06:16:22;7.63;;;6.43;;
7843;SDS011;3967;48.702;9.326;2023-06-24T06:18:49;7.83;;;6.20;;
7843;SDS011;3967;48.702;9.326;2023-06-24T06:21:16;7.03;;;6.00;;
7843;SDS011;3967;48.702;9.326;2023-06-24T06:23:43;6.73;;;5.67;;
7843;SDS011;3967;48.702;9.326;2023-06-24T06:26:10;5.27;;;4.50;;
7843;SDS011;3967;48.702;9.326;2023-06-24T06:28:36;6.10;;;5.50;;
7843;SDS011;3967;48.702;9.326;2023-06-24T06:31:03;6.40;;;5.20;;
7843;SDS011;3967;48.702;9.326;2023-06-24T06:33:30;8.67;;;5.07;;
7843;SDS011;3967;48.702;9.326;2023-06-24T06:35:57;5.83;;;5.23;;
7843;SDS011;3967;48.702;9.326;2023-06-24T06:38:23;5.50;;;4.93;;
7843;SDS011;3967;48.702;9.326;2023-06-24T06:40:50;5.87;;;4.80;;
7843;SDS011;3967;48.702;9.326;2023-06-24T06:43:17;5.23;;;4.60;;
7843;SDS011;3967;48.702;9.326;2023-06-24T06:45:44;5.23;;;4.63;;
7843;SDS011;3967;48.702;9.326;2023-06-24T06:48:10;3.90;;;3.60;;
7843;SDS011;3967;48.702;9.326;2023-06-24T06:50:37;4.47;;;3.83;;
7843;SDS011;3967;48.702;9.326;2023-06-24T06:53:04;4.87;;;4.37;;
7843;SDS011;3967;48.702;9.326;2023-06-24T06:55:30;4.00;;;3.70;;
7843;SDS011;3967;48.702;9.326;2023-06-24T06:57:57;10.67;;;3.60;;
7843;SDS011;3967;48.702;9.326;2023-06-24T07:00:24;4.43;;;4.00;;
7843;SDS011;3967;48.702;9.326;2023-06-24T07:02:51;4.13;;;3.77;;
7843;SDS011;3967;48.702;9.326;2023-06-24T07:05:18;4.60;;;3.60;;
7843;SDS011;3967;48.702;9.326;2023-06-24T07:07:44;3.87;;;3.57;;
7843;SDS011;3967;48.702;9.326;2023-06-24T07:10:12;3.93;;;3.50;;
7843;SDS011;3967;48.702;9.326;2023-06-24T07:12:39;4.10;;;3.70;;
7843;SDS011;3967;48.702;9.326;2023-06-24T07:15:06;4.23;;;3.90;;
7843;SDS011;3967;48.702;9.326;2023-06-24T07:17:36;4.03;;;3.63;;
7843;SDS011;3967;48.702;9.326;2023-06-24T07:20:03;4.27;;;3.87;;
7843;SDS011;3967;48.702;9.326;2023-06-24T07:22:30;3.50;;;3.20;;
7843;SDS011;3967;48.702;9.326;2023-06-24T07:24:57;3.73;;;3.43;;
7843;SDS011;3967;48.702;9.326;2023-06-24T07:27:24;4.80;;;4.30;;
7843;SDS011;3967;48.702;9.326;2023-06-24T07:29:51;3.67;;;3.37;;
7843;SDS011;3967;48.702;9.326;2023-06-24T07:32:20;3.70;;;3.40;;
7843;SDS011;3967;48.702;9.326;2023-06-24T07:34:47;3.20;;;2.90;;
7843;SDS011;3967;48.702;9.326;2023-06-24T07:37:14;3.97;;;2.63;;
7843;SDS011;3967;48.702;9.326;2023-06-24T07:39:50;3.60;;;3.10;;
7843;SDS011;3967;48.702;9.326;2023-06-24T07:42:17;3.10;;;2.78;;
7843;SDS011;3967;48.702;9.326;2023-06-24T07:44:46;3.70;;;3.20;;
7843;SDS011;3967;48.702;9.326;2023-06-24T07:47:13;4.28;;;3.60;;
7843;SDS011;3967;48.702;9.326;2023-06-24T07:49:42;3.30;;;3.00;;
7843;SDS011;3967;48.702;9.326;2023-06-24T07:52:09;2.80;;;2.60;;
7843;SDS011;3967;48.702;9.326;2023-06-24T07:54:35;2.88;;;2.67;;
7843;SDS011;3967;48.702;9.326;2023-06-24T07:57:02;3.30;;;3.00;;
7843;SDS011;3967;48.702;9.326;2023-06-24T07:59:29;2.97;;;2.78;;
7843;SDS011;3967;48.702;9.326;2023-06-24T08:01:56;3.38;;;2.70;;
7843;SDS011;3967;48.702;9.326;2023-06-24T08:04:23;3.25;;;2.95;;
7843;SDS011;3967;48.702;9.326;2023-06-24T08:06:50;3.20;;;3.00;;
7843;SDS011;3967;48.702;9.326;2023-06-24T08:09:17;3.58;;;3.28;;
7843;SDS011;3967;48.702;9.326;2023-06-24T08:11:44;3.33;;;3.10;;
7843;SDS011;3967;48.702;9.326;2023-06-24T08:14:11;3.15;;;2.95;;
7843;SDS011;3967;48.702;9.326;2023-06-24T08:16:38;3.88;;;2.97;;
7843;SDS011;3967;48.702;9.326;2023-06-24T08:19:05;3.30;;;3.10;;
7843;SDS011;3967;48.702;9.326;2023-06-24T08:21:31;2.97;;;2.78;;
7843;SDS011;3967;48.702;9.326;2023-06-24T08:24:00;2.92;;;2.72;;
7843;SDS011;3967;48.702;9.326;2023-06-24T08:26:26;3.20;;;2.92;;
7843;SDS011;3967;48.702;9.326;2023-06-24T08:28:53;2.90;;;2.70;;
7843;SDS011;3967;48.702;9.326;2023-06-24T08:31:20;2.60;;;2.40;;
7843;SDS011;3967;48.702;9.326;2023-06-24T08:33:51;2.88;;;2.25;;
7843;SDS011;3967;48.702;9.326;2023-06-24T08:36:22;3.08;;;2.70;;
7843;SDS011;3967;48.702;9.326;2023-06-24T08:38:51;3.35;;;2.45;;
7843;SDS011;3967;48.702;9.326;2023-06-24T08:41:18;4.63;;;3.72;;
7843;SDS011;3967;48.702;9.326;2023-06-24T08:43:45;3.03;;;2.58;;
7843;SDS011;3967;48.702;9.326;2023-06-24T08:46:12;3.72;;;2.95;;
7843;SDS011;3967;48.702;9.326;2023-06-24T08:48:42;3.08;;;2.63;;
7843;SDS011;3967;48.702;9.326;2023-06-24T08:51:11;3.15;;;2.83;;
7843;SDS011;3967;48.702;9.326;2023-06-24T08:53:42;2.65;;;2.45;;
7843;SDS011;3967;48.702;9.326;2023-06-24T08:56:13;2.50;;;2.30;;
7843;SDS011;3967;48.702;9.326;2023-06-24T08:58:40;2.50;;;2.30;;
7843;SDS011;3967;48.702;9.326;2023-06-24T09:01:07;2.83;;;2.63;;
7843;SDS011;3967;48.702;9.326;2023-06-24T09:03:34;3.00;;;2.70;;
7843;SDS011;3967;48.702;9.326;2023-06-24T09:06:02;4.70;;;3.28;;
7843;SDS011;3967;48.702;9.326;2023-06-24T09:08:29;3.60;;;3.22;;
7843;SDS011;3967;48.702;9.326;2023-06-24T09:10:55;3.25;;;2.30;;
7843;SDS011;3967;48.702;9.326;2023-06-24T09:13:43;2.88;;;2.65;;
7843;SDS011;3967;48.702;9.326;2023-06-24T09:16:13;2.65;;;2.45;;
7843;SDS011;3967;48.702;9.326;2023-06-24T09:18:40;3.03;;;2.83;;
7843;SDS011;3967;48.702;9.326;2023-06-24T09:21:07;3.13;;;2.58;;
7843;SDS011;3967;48.702;9.326;2023-06-24T09:23:37;2.50;;;2.30;;
7843;SDS011;3967;48.702;9.326;2023-06-24T09:26:04;2.90;;;2.70;;
7843;SDS011;3967;48.702;9.326;2023-06-24T09:28:35;5.03;;;2.58;;
7843;SDS011;3967;48.702;9.326;2023-06-24T09:31:06;2.63;;;2.42;;
7843;SDS011;3967;48.702;9.326;2023-06-24T09:33:45;3.10;;;2.55;;
7843;SDS011;3967;48.702;9.326;2023-06-24T09:36:13;2.60;;;2.40;;
7843;SDS011;3967;48.702;9.326;2023-06-24T09:38:41;2.70;;;2.50;;
7843;SDS011;3967;48.702;9.326;2023-06-24T09:41:10;2.38;;;1.92;;
7843;SDS011;3967;48.702;9.326;2023-06-24T09:43:41;3.15;;;2.70;;
7843;SDS011;3967;48.702;9.326;2023-06-24T09:46:10;3.10;;;2.30;;
7843;SDS011;3967;48.702;9.326;2023-06-24T09:48:38;3.70;;;2.47;;
7843;SDS011;3967;48.702;9.326;2023-06-24T09:51:05;3.35;;;2.38;;
7843;SDS011;3967;48.702;9.326;2023-06-24T09:53:33;2.72;;;2.53;;
7843;SDS011;3967;48.702;9.326;2023-06-24T09:56:03;2.60;;;2.40;;
7843;SDS011;3967;48.702;9.326;2023-06-24T09:58:31;2.47;;;2.28;;
7843;SDS011;3967;48.702;9.326;2023-06-24T10:01:02;2.42;;;2.22;;
7843;SDS011;3967;48.702;9.326;2023-06-24T10:03:32;2.55;;;2.10;;
7843;SDS011;3967;48.702;9.326;2023-06-24T10:06:02;2.38;;;2.25;;
7843;SDS011;3967;48.702;9.326;2023-06-24T10:08:31;2.20;;;2.10;;
7843;SDS011;3967;48.702;9.326;2023-06-24T10:10:58;2.20;;;2.00;;
7843;SDS011;3967;48.702;9.326;2023-06-24T10:13:26;2.38;;;2.20;;
7843;SDS011;3967;48.702;9.326;2023-06-24T10:15:54;2.42;;;2.22;;
7843;SDS011;3967;48.702;9.326;2023-06-24T10:21:00;2.30;;;2.10;;
7843;SDS011;3967;48.702;9.326;2023-06-24T10:23:32;2.33;;;2.13;;
7843;SDS011;3967;48.702;9.326;2023-06-24T10:26:07;2.00;;;1.90;;
7843;SDS011;3967;48.702;9.326;2023-06-24T10:36:53;2.20;;;2.00;;
7843;SDS011;3967;48.702;9.326;2023-06-24T10:39:35;2.15;;;1.95;;
7843;SDS011;3967;48.702;9.326;2023-06-24T10:44:50;1.88;;;1.77;;
7843;SDS011;3967;48.702;9.326;2023-06-24T10:47:18;2.20;;;2.00;;
7843;SDS011;3967;48.702;9.326;2023-06-24T10:49:46;2.30;;;2.10;;
7843;SDS011;3967;48.702;9.326;2023-06-24T10:52:12;3.78;;;2.20;;
7843;SDS011;3967;48.702;9.326;2023-06-24T10:54:40;3.28;;;2.05;;
7843;SDS011;3967;48.702;9.326;2023-06-24T10:57:07;2.03;;;1.92;;
7843;SDS011;3967;48.702;9.326;2023-06-24T10:59:43;2.67;;;2.00;;
7843;SDS011;3967;48.702;9.326;2023-06-24T11:02:13;2.30;;;2.10;;
7843;SDS011;3967;48.702;9.326;2023-06-24T11:04:45;2.20;;;2.10;;
7843;SDS011;3967;48.702;9.326;2023-06-24T11:07:16;3.42;;;2.42;;
7843;SDS011;3967;48.702;9.326;2023-06-24T11:09:49;2.00;;;1.85;;
7843;SDS011;3967;48.702;9.326;2023-06-24T11:12:22;2.17;;;1.98;;
7843;SDS011;3967;48.702;9.326;2023-06-24T11:15:00;2.00;;;1.90;;
7843;SDS011;3967;48.702;9.326;2023-06-24T11:17:28;2.30;;;2.10;;
7843;SDS011;3967;48.702;9.326;2023-06-24T11:19:56;2.10;;;2.00;;
7843;SDS011;3967;48.702;9.326;2023-06-24T11:22:24;3.25;;;2.20;;
7843;SDS011;3967;48.702;9.326;2023-06-24T11:24:52;1.70;;;1.60;;
7843;SDS011;3967;48.702;9.326;2023-06-24T11:27:23;2.38;;;2.17;;
7843;SDS011;3967;48.702;9.326;2023-06-24T11:29:56;2.22;;;2.13;;
7843;SDS011;3967;48.702;9.326;2023-06-24T11:32:34;3.70;;;2.20;;
7843;SDS011;3967;48.702;9.326;2023-06-24T11:35:05;1.98;;;1.88;;
7843;SDS011;3967;48.702;9.326;2023-06-24T11:37:34;2.00;;;1.58;;
7843;SDS011;3967;48.702;9.326;2023-06-24T11:40:02;2.25;;;2.10;;
7843;SDS011;3967;48.702;9.326;2023-06-24T11:42:31;3.47;;;1.90;;
7843;SDS011;3967;48.702;9.326;2023-06-24T11:45:00;3.20;;;2.40;;
7843;SDS011;3967;48.702;9.326;2023-06-24T11:47:33;2.35;;;2.15;;
7843;SDS011;3967;48.702;9.326;2023-06-24T11:50:02;2.67;;;2.47;;
7843;SDS011;3967;48.702;9.326;2023-06-24T11:52:40;1.80;;;1.70;;
7843;SDS011;3967;48.702;9.326;2023-06-24T11:55:11;2.08;;;1.98;;
7843;SDS011;3967;48.702;9.326;2023-06-24T11:57:55;2.88;;;2.10;;
7843;SDS011;3967;48.702;9.326;2023-06-24T12:00:23;2.33;;;2.13;;
7843;SDS011;3967;48.702;9.326;2023-06-24T12:03:03;1.83;;;1.73;;
7843;SDS011;3967;48.702;9.326;2023-06-24T12:05:37;2.05;;;1.50;;
7843;SDS011;3967;48.702;9.326;2023-06-24T12:08:12;2.10;;;2.00;;
7843;SDS011;3967;48.702;9.326;2023-06-24T12:10:43;1.98;;;1.88;;
7843;SDS011;3967;48.702;9.326;2023-06-24T12:13:10;1.95;;;1.85;;
7843;SDS011;3967;48.702;9.326;2023-06-24T12:15:38;2.35;;;2.15;;
7843;SDS011;3967;48.702;9.326;2023-06-24T12:18:04;1.80;;;1.70;;
7843;SDS011;3967;48.702;9.326;2023-06-24T12:20:32;2.20;;;1.65;;
7843;SDS011;3967;48.702;9.326;2023-06-24T12:23:03;2.20;;;2.00;;
7843;SDS011;3967;48.702;9.326;2023-06-24T12:25:30;2.03;;;1.92;;
7843;SDS011;3967;48.702;9.326;2023-06-24T12:27:57;2.00;;;1.90;;
7843;SDS011;3967;48.702;9.326;2023-06-24T12:30:26;2.10;;;1.90;;
7843;SDS011;3967;48.702;9.326;2023-06-24T12:32:53;2.10;;;2.00;;
7843;SDS011;3967;48.702;9.326;2023-06-24T12:35:21;2.72;;;1.80;;
7843;SDS011;3967;48.702;9.326;2023-06-24T12:37:51;1.95;;;1.85;;
7843;SDS011;3967;48.702;9.326;2023-06-24T12:40:18;2.55;;;2.38;;
7843;SDS011;3967;48.702;9.326;2023-06-24T12:42:45;2.10;;;1.90;;
7843;SDS011;3967;48.702;9.326;2023-06-24T12:45:12;2.40;;;2.20;;
7843;SDS011;3967;48.702;9.326;2023-06-24T12:47:39;1.90;;;1.80;;
7843;SDS011;3967;48.702;9.326;2023-06-24T12:50:06;2.42;;;2.22;;
7843;SDS011;3967;48.702;9.326;2023-06-24T12:52:35;2.20;;;2.10;;
7843;SDS011;3967;48.702;9.326;2023-06-24T12:55:01;2.55;;;2.35;;
7843;SDS011;3967;48.702;9.326;2023-06-24T12:57:30;2.22;;;2.03;;
7843;SDS011;3967;48.702;9.326;2023-06-24T12:59:57;2.00;;;1.83;;
7843;SDS011;3967;48.702;9.326;2023-06-24T13:02:23;2.53;;;2.33;;
7843;SDS011;3967;48.702;9.326;2023-06-24T13:04:51;1.80;;;1.70;;
7843;SDS011;3967;48.702;9.326;2023-06-24T13:07:18;2.33;;;1.83;;
7843;SDS011;3967;48.702;9.326;2023-06-24T13:09:44;1.98;;;1.88;;
7843;SDS011;3967;48.702;9.326;2023-06-24T13:12:11;2.20;;;2.00;;
7843;SDS011;3967;48.702;9.326;2023-06-24T13:14:38;1.80;;;1.70;;
7843;SDS011;3967;48.702;9.326;2023-06-24T13:17:05;2.30;;;2.08;;
7843;SDS011;3967;48.702;9.326;2023-06-24T13:19:32;2.53;;;1.98;;
7843;SDS011;3967;48.702;9.326;2023-06-24T13:21:59;2.38;;;2.22;;
7843;SDS011;3967;48.702;9.326;2023-06-24T13:24:25;2.10;;;2.00;;
7843;SDS011;3967;48.702;9.326;2023-06-24T13:26:52;2.45;;;2.25;;
7843;SDS011;3967;48.702;9.326;2023-06-24T13:29:19;2.25;;;2.03;;
7843;SDS011;3967;48.702;9.326;2023-06-24T13:31:46;2.38;;;2.20;;
7843;SDS011;3967;48.702;9.326;2023-06-24T13:34:13;2.10;;;2.00;;
7843;SDS011;3967;48.702;9.326;2023-06-24T13:36:43;2.42;;;2.22;;
7843;SDS011;3967;48.702;9.326;2023-06-24T13:39:10;2.10;;;2.00;;
7843;SDS011;3967;48.702;9.326;2023-06-24T13:41:44;1.95;;;1.85;;
7843;SDS011;3967;48.702;9.326;2023-06-24T13:44:11;1.92;;;1.80;;
7843;SDS011;3967;48.702;9.326;2023-06-24T13:46:37;2.33;;;2.20;;
7843;SDS011;3967;48.702;9.326;2023-06-24T13:49:04;1.98;;;1.88;;
7843;SDS011;3967;48.702;9.326;2023-06-24T13:51:31;2.10;;;2.00;;
7843;SDS011;3967;48.702;9.326;2023-06-24T13:53:58;2.10;;;2.00;;
7843;SDS011;3967;48.702;9.326;2023-06-24T13:56:25;2.08;;;1.98;;
7843;SDS011;3967;48.702;9.326;2023-06-24T13:58:53;2.10;;;2.00;;
7843;SDS011;3967;48.702;9.326;2023-06-24T14:01:21;2.47;;;2.28;;
7843;SDS011;3967;48.702;9.326;2023-06-24T14:03:49;1.75;;;1.65;;
7843;SDS011;3967;48.702;9.326;2023-06-24T14:06:19;3.00;;;2.70;;
7843;SDS011;3967;48.702;9.326;2023-06-24T14:08:46;2.00;;;1.90;;
7843;SDS011;3967;48.702;9.326;2023-06-24T14:11:14;2.33;;;2.15;;
7843;SDS011;3967;48.702;9.326;2023-06-24T14:13:41;4.93;;;2.60;;
7843;SDS011;3967;48.702;9.326;2023-06-24T14:16:09;2.25;;;2.10;;
7843;SDS011;3967;48.702;9.326;2023-06-24T14:18:38;2.50;;;2.30;;
7843;SDS011;3967;48.702;9.326;2023-06-24T14:21:06;2.30;;;2.03;;
7843;SDS011;3967;48.702;9.326;2023-06-24T14:23:33;2.00;;;1.90;;
7843;SDS011;3967;48.702;9.326;2023-06-24T14:26:00;2.20;;;2.00;;
7843;SDS011;3967;48.702;9.326;2023-06-24T14:28:27;3.10;;;1.90;;
7843;SDS011;3967;48.702;9.326;2023-06-24T14:30:54;2.30;;;2.10;;
7843;SDS011;3967;48.702;9.326;2023-06-24T14:33:21;2.17;;;2.08;;
7843;SDS011;3967;48.702;9.326;2023-06-24T14:35:48;2.30;;;2.10;;
7843;SDS011;3967;48.702;9.326;2023-06-24T14:38:14;2.30;;;2.15;;
7843;SDS011;3967;48.702;9.326;2023-06-24T14:40:41;2.22;;;2.13;;
7843;SDS011;3967;48.702;9.326;2023-06-24T14:43:08;2.22;;;2.03;;
7843;SDS011;3967;48.702;9.326;2023-06-24T14:45:35;2.00;;;1.90;;
7843;SDS011;3967;48.702;9.326;2023-06-24T14:48:02;2.10;;;2.00;;
7843;SDS011;3967;48.702;9.326;2023-06-24T14:50:29;2.28;;;2.17;;
7843;SDS011;3967;48.702;9.326;2023-06-24T14:52:56;2.53;;;2.35;;
7843;SDS011;3967;48.702;9.326;2023-06-24T14:55:23;2.65;;;2.35;;
7843;SDS011;3967;48.702;9.326;2023-06-24T14:57:50;2.17;;;2.00;;
7843;SDS011;3967;48.702;9.326;2023-06-24T15:00:17;2.70;;;2.22;;
7843;SDS011;3967;48.702;9.326;2023-06-24T15:02:43;2.85;;;2.25;;
7843;SDS011;3967;48.702;9.326;2023-06-24T15:05:10;2.90;;;2.13;;
7843;SDS011;3967;48.702;9.326;2023-06-24T15:07:37;2.00;;;1.90;;
7843;SDS011;3967;48.702;9.326;2023-06-24T15:10:04;2.22;;;2.13;;
7843;SDS011;3967;48.702;9.326;2023-06-24T15:12:32;2.08;;;1.98;;
7843;SDS011;3967;48.702;9.326;2023-06-24T15:15:00;2.38;;;2.17;;
7843;SDS011;3967;48.702;9.326;2023-06-24T15:17:27;2.47;;;2.28;;
7843;SDS011;3967;48.702;9.326;2023-06-24T15:19:55;2.20;;;2.00;;
7843;SDS011;3967;48.702;9.326;2023-06-24T15:22:22;3.50;;;2.08;;
7843;SDS011;3967;48.702;9.326;2023-06-24T15:24:49;2.08;;;1.98;;
7843;SDS011;3967;48.702;9.326;2023-06-24T15:27:16;2.75;;;2.25;;
7843;SDS011;3967;48.702;9.326;2023-06-24T15:29:43;2.28;;;2.17;;
7843;SDS011;3967;48.702;9.326;2023-06-24T15:32:10;2.15;;;1.98;;
7843;SDS011;3967;48.702;9.326;2023-06-24T15:34:37;2.20;;;2.10;;
7843;SDS011;3967;48.702;9.326;2023-06-24T15:37:04;3.13;;;2.00;;
7843;SDS011;3967;48.702;9.326;2023-06-24T15:39:31;1.95;;;1.83;;
7843;SDS011;3967;48.702;9.326;2023-06-24T15:41:58;2.10;;;2.00;;
7843;SDS011;3967;48.702;9.326;2023-06-24T15:44:25;2.90;;;2.28;;
7843;SDS011;3967;48.702;9.326;2023-06-24T15:46:51;2.45;;;2.10;;
7843;SDS011;3967;48.702;9.326;2023-06-24T15:49:19;2.55;;;1.73;;
7843;SDS011;3967;48.702;9.326;2023-06-24T15:51:45;2.35;;;2.15;;